createdAt,value
2022-08-19T00:01:53.396Z,11.50
2022-08-19T00:04:25.422Z,10.70
2022-08-19T00:06:53.457Z,11.50
2022-08-19T00:09:23.158Z,10.80
2022-08-19T00:11:52.186Z,11.00
2022-08-19T00:14:21.673Z,11.10
2022-08-19T00:16:50.115Z,10.90
2022-08-19T00:19:18.007Z,10.50
2022-08-19T00:21:45.588Z,10.10
2022-08-19T00:24:15.785Z,10.80
2022-08-19T00:26:44.561Z,11.00
2022-08-19T00:29:13.791Z,10.70
2022-08-19T00:31:43.697Z,10.70
2022-08-19T00:34:13.038Z,10.30
2022-08-19T00:36:44.356Z,10.60
2022-08-19T00:39:12.672Z,11.20
2022-08-19T00:41:41.392Z,10.60
2022-08-19T00:44:11.128Z,10.30
2022-08-19T00:46:42.135Z,9.60
2022-08-19T00:49:21.244Z,10.20
2022-08-19T00:51:52.657Z,9.90
2022-08-19T00:54:31.130Z,10.40
2022-08-19T00:57:00.664Z,10.20
2022-08-19T00:59:56.390Z,10.10
2022-08-19T01:02:18.256Z,9.80
2022-08-19T01:04:46.096Z,9.70
2022-08-19T01:07:15.216Z,9.40
2022-08-19T01:09:47.903Z,9.70
2022-08-19T01:12:17.777Z,9.60
2022-08-19T01:14:46.396Z,9.50
2022-08-19T01:17:15.969Z,9.30
2022-08-19T01:19:47.290Z,9.10
2022-08-19T01:22:33.707Z,9.30
2022-08-19T01:25:02.409Z,9.40
2022-08-19T01:27:44.099Z,10.10
2022-08-19T01:30:17.611Z,10.10
2022-08-19T01:32:45.467Z,9.90
2022-08-19T01:35:18.995Z,9.20
2022-08-19T01:37:51.973Z,10.00
2022-08-19T01:40:21.698Z,9.70
2022-08-19T01:42:50.868Z,9.50
2022-08-19T01:45:19.877Z,8.90
2022-08-19T01:47:55.560Z,9.80
2022-08-19T01:50:31.874Z,9.30
2022-08-19T01:53:06.210Z,9.80
2022-08-19T01:55:40.517Z,10.00
2022-08-19T01:58:21.826Z,9.70
2022-08-19T02:00:49.662Z,9.20
2022-08-19T02:03:17.732Z,9.80
2022-08-19T02:05:46.666Z,9.60
2022-08-19T02:08:14.329Z,9.40
2022-08-19T02:10:44.434Z,9.40
2022-08-19T02:13:14.347Z,9.00
2022-08-19T02:15:42.617Z,9.90
2022-08-19T02:18:11.596Z,9.50
2022-08-19T02:20:41.524Z,9.60
2022-08-19T02:23:13.717Z,9.80
2022-08-19T02:25:46.671Z,10.20
2022-08-19T02:28:18.585Z,9.60
2022-08-19T02:30:48.783Z,8.70
2022-08-19T02:33:17.654Z,9.50
2022-08-19T02:35:47.594Z,9.00
2022-08-19T02:38:32.132Z,9.10
2022-08-19T02:41:04.084Z,9.40
2022-08-19T02:43:34.755Z,10.10
2022-08-19T02:46:12.637Z,9.20
2022-08-19T02:48:40.629Z,10.10
2022-08-19T02:51:08.251Z,10.00
2022-08-19T02:53:35.880Z,9.00
2022-08-19T02:56:07.824Z,9.80
2022-08-19T02:58:35.548Z,9.40
2022-08-19T03:01:03.353Z,9.20
2022-08-19T03:03:31.139Z,9.30
2022-08-19T03:06:15.932Z,9.80
2022-08-19T03:08:47.408Z,9.80
2022-08-19T03:11:21.705Z,9.80
2022-08-19T03:13:51.692Z,9.40
2022-08-19T03:16:20.642Z,10.10
2022-08-19T03:18:49.113Z,10.10
2022-08-19T03:21:26.925Z,10.00
2022-08-19T03:23:55.502Z,10.00
2022-08-19T03:26:23.203Z,10.00
2022-08-19T03:28:57.996Z,10.10
2022-08-19T03:31:43.488Z,9.60
2022-08-19T03:34:18.611Z,10.20
2022-08-19T03:36:47.642Z,10.10
2022-08-19T03:39:15.897Z,10.50
2022-08-19T03:41:48.130Z,9.90
2022-08-19T03:44:21.740Z,10.20
2022-08-19T03:46:53.236Z,10.20
2022-08-19T03:49:27.107Z,10.40
2022-08-19T03:51:58.049Z,10.40
2022-08-19T03:54:27.100Z,9.90
2022-08-19T03:56:57.224Z,10.30
2022-08-19T03:59:31.504Z,9.70
2022-08-19T04:02:04.087Z,9.50
2022-08-19T04:04:32.075Z,9.10
2022-08-19T04:06:59.747Z,9.70
2022-08-19T04:09:27.880Z,10.00
2022-08-19T04:11:57.678Z,9.40
2022-08-19T04:14:31.018Z,9.60
2022-08-19T04:19:30.493Z,9.20
2022-08-19T04:21:59.198Z,9.20
2022-08-19T04:24:27.259Z,9.30
2022-08-19T04:26:55.111Z,9.30
2022-08-19T04:29:26.467Z,9.60
2022-08-19T04:31:56.429Z,9.50
2022-08-19T04:34:26.426Z,9.10
2022-08-19T04:36:57.086Z,8.80
2022-08-19T04:39:48.665Z,9.10
2022-08-19T04:42:34.887Z,9.00
2022-08-19T04:45:05.391Z,8.70
2022-08-19T04:47:47.591Z,8.50
2022-08-19T04:50:28.954Z,8.60
2022-08-19T04:52:56.871Z,8.00
2022-08-19T04:55:26.592Z,7.80
2022-08-19T04:57:55.048Z,8.80
2022-08-19T05:00:23.239Z,8.70
2022-08-19T05:02:51.011Z,8.40
2022-08-19T05:05:20.609Z,7.70
2022-08-19T05:07:52.424Z,7.90
2022-08-19T05:10:20.343Z,8.00
2022-08-19T05:12:47.996Z,8.30
2022-08-19T05:15:15.779Z,8.10
2022-08-19T05:18:03.447Z,8.50
2022-08-19T05:20:47.029Z,8.00
2022-08-19T05:25:51.487Z,7.80
2022-08-19T05:28:21.264Z,8.10
2022-08-19T05:30:51.428Z,7.80
2022-08-19T05:33:19.442Z,7.70
2022-08-19T05:35:47.062Z,7.70
2022-08-19T05:38:14.882Z,10.50
2022-08-19T05:40:47.489Z,8.10
2022-08-19T05:43:18.375Z,8.10
2022-08-19T05:45:46.493Z,7.60
2022-08-19T05:48:15.123Z,8.10
2022-08-19T05:50:43.109Z,8.20
2022-08-19T05:53:10.873Z,17.00
2022-08-19T05:55:39.523Z,8.30
2022-08-19T05:58:10.374Z,8.40
2022-08-19T06:00:38.507Z,7.70
2022-08-19T06:03:11.873Z,8.00
2022-08-19T06:05:46.808Z,7.30
2022-08-19T06:08:21.035Z,7.10
2022-08-19T06:11:45.894Z,8.10
2022-08-19T06:14:19.471Z,7.10
2022-08-19T06:16:55.764Z,7.30
2022-08-19T06:19:25.242Z,7.60
2022-08-19T06:21:54.060Z,7.20
2022-08-19T06:24:24.785Z,7.20
2022-08-19T06:26:57.961Z,7.10
2022-08-19T06:29:30.228Z,7.10
2022-08-19T06:32:01.046Z,7.40
2022-08-19T06:34:31.680Z,7.20
2022-08-19T06:37:04.179Z,6.90
2022-08-19T06:39:39.287Z,6.90
2022-08-19T06:42:09.730Z,6.90
2022-08-19T06:44:42.638Z,6.90
2022-08-19T06:47:25.024Z,6.80
2022-08-19T06:50:03.168Z,6.60
2022-08-19T06:52:34.860Z,6.60
2022-08-19T06:55:06.145Z,6.70
2022-08-19T06:57:35.185Z,6.40
2022-08-19T07:00:07.143Z,6.70
2022-08-19T07:02:38.356Z,6.60
2022-08-19T07:05:06.852Z,7.00
2022-08-19T07:07:35.545Z,6.20
2022-08-19T07:10:07.711Z,7.30
2022-08-19T07:12:36.121Z,7.40
2022-08-19T07:15:07.243Z,7.00
2022-08-19T07:17:38.181Z,6.50
2022-08-19T07:20:09.388Z,7.00
2022-08-19T07:22:38.921Z,6.90
2022-08-19T07:25:09.242Z,7.00
2022-08-19T07:27:38.169Z,6.70
2022-08-19T07:30:11.675Z,6.60
2022-08-19T07:32:40.958Z,6.40
2022-08-19T07:35:10.457Z,6.90
2022-08-19T07:37:39.130Z,6.40
2022-08-19T07:40:08.658Z,6.50
2022-08-19T07:42:36.678Z,6.60
2022-08-19T07:45:06.517Z,6.30
2022-08-19T07:47:58.577Z,6.30
2022-08-19T07:50:22.597Z,6.30
2022-08-19T07:52:51.092Z,6.50
2022-08-19T07:55:43.257Z,6.20
2022-08-19T07:58:13.501Z,6.40
2022-08-19T08:00:42.600Z,6.70
2022-08-19T08:03:11.703Z,6.20
2022-08-19T08:05:58.838Z,6.90
2022-08-19T08:08:48.280Z,5.30
2022-08-19T08:11:20.995Z,5.60
2022-08-19T08:14:00.723Z,8.00
2022-08-19T08:16:39.679Z,17.60
2022-08-19T08:19:20.408Z,11.80
2022-08-19T08:21:56.561Z,6.50
2022-08-19T08:24:28.596Z,5.90
2022-08-19T08:26:57.825Z,6.10
2022-08-19T08:29:35.080Z,6.60
2022-08-19T08:32:04.427Z,5.70
2022-08-19T08:34:43.027Z,6.10
2022-08-19T08:37:10.723Z,5.90
2022-08-19T08:39:38.940Z,5.90
2022-08-19T08:42:18.319Z,5.70
2022-08-19T08:44:59.312Z,5.60
2022-08-19T08:47:33.599Z,5.50
2022-08-19T08:50:26.291Z,10.40
2022-08-19T08:52:59.067Z,6.60
2022-08-19T08:55:36.791Z,5.20
2022-08-19T08:58:14.740Z,5.20
2022-08-19T09:00:47.512Z,5.90
2022-08-19T09:03:25.542Z,5.90
2022-08-19T09:05:56.093Z,6.30
2022-08-19T09:08:29.096Z,5.80
2022-08-19T09:10:58.336Z,5.70
2022-08-19T09:13:37.279Z,6.00
2022-08-19T09:16:13.938Z,5.70
2022-08-19T09:18:48.080Z,5.50
2022-08-19T09:21:16.608Z,5.50
2022-08-19T09:23:45.288Z,5.80
2022-08-19T09:26:24.277Z,5.50
2022-08-19T09:29:06.051Z,5.50
2022-08-19T09:31:34.364Z,6.10
2022-08-19T09:34:06.012Z,6.30
2022-08-19T09:36:36.917Z,5.70
2022-08-19T09:39:16.005Z,5.60
2022-08-19T09:41:47.369Z,6.00
2022-08-19T09:44:15.561Z,5.10
2022-08-19T09:46:44.270Z,5.50
2022-08-19T09:49:11.999Z,6.00
2022-08-19T09:51:41.339Z,5.60
2022-08-19T09:54:11.262Z,5.60
2022-08-19T09:56:39.375Z,5.80
2022-08-19T09:59:11.182Z,5.80
2022-08-19T10:01:39.601Z,5.70
2022-08-19T10:04:20.182Z,5.70
2022-08-19T10:06:53.656Z,5.10
2022-08-19T10:09:34.016Z,5.60
2022-08-19T10:12:06.120Z,6.00
2022-08-19T10:14:35.469Z,6.30
2022-08-19T10:17:17.555Z,5.60
2022-08-19T10:19:55.171Z,5.60
2022-08-19T10:22:25.466Z,5.50
2022-08-19T10:24:54.482Z,5.60
2022-08-19T10:27:22.917Z,5.60
2022-08-19T10:29:50.812Z,6.00
2022-08-19T10:32:18.475Z,5.60
2022-08-19T10:34:59.654Z,5.50
2022-08-19T10:37:31.387Z,6.00
2022-08-19T10:40:00.510Z,5.50
2022-08-19T10:42:28.342Z,5.40
2022-08-19T10:44:56.115Z,5.80
2022-08-19T10:47:26.344Z,5.70
2022-08-19T10:50:15.783Z,6.20
2022-08-19T10:52:50.201Z,6.00
2022-08-19T10:55:39.671Z,5.70
2022-08-19T10:58:13.170Z,5.80
2022-08-19T11:00:43.821Z,5.30
2022-08-19T11:03:11.871Z,5.60
2022-08-19T11:05:40.467Z,5.70
2022-08-19T11:08:23.024Z,5.70
2022-08-19T11:10:56.238Z,5.60
2022-08-19T11:13:24.321Z,5.80
2022-08-19T11:16:05.117Z,5.50
2022-08-19T11:21:25.412Z,5.20
2022-08-19T11:23:57.156Z,5.20
2022-08-19T11:26:26.362Z,5.30
2022-08-19T11:28:57.115Z,5.20
2022-08-19T11:31:29.228Z,5.40
2022-08-19T11:34:03.389Z,5.70
2022-08-19T11:36:33.298Z,5.40
2022-08-19T11:39:02.391Z,5.50
2022-08-19T11:41:30.033Z,5.60
2022-08-19T11:43:57.819Z,6.00
2022-08-19T11:46:30.294Z,5.00
2022-08-19T11:49:00.146Z,5.60
2022-08-19T11:51:29.202Z,5.10
2022-08-19T11:53:58.898Z,5.30
2022-08-19T11:56:28.418Z,5.20
2022-08-19T11:58:59.993Z,5.20
2022-08-19T12:01:28.450Z,5.40
2022-08-19T12:03:57.477Z,5.60
2022-08-19T12:06:32.590Z,5.40
2022-08-19T12:09:05.297Z,5.20
2022-08-19T12:11:34.482Z,5.10
2022-08-19T12:14:02.622Z,5.30
2022-08-19T12:16:32.663Z,5.50
2022-08-19T12:19:04.734Z,5.00
2022-08-19T12:21:36.003Z,5.00
2022-08-19T12:24:06.731Z,5.40
2022-08-19T12:26:39.005Z,5.00
2022-08-19T12:29:23.858Z,5.40
2022-08-19T12:31:52.646Z,5.40
2022-08-19T12:34:21.191Z,4.90
2022-08-19T12:36:50.736Z,4.90
2022-08-19T12:39:18.786Z,5.10
2022-08-19T12:41:54.068Z,5.10
2022-08-19T12:44:29.021Z,4.80
2022-08-19T12:46:57.958Z,5.60
2022-08-19T12:49:51.913Z,5.30
2022-08-19T12:52:16.850Z,5.00
2022-08-19T12:54:54.423Z,5.00
2022-08-19T12:57:32.882Z,5.00
2022-08-19T13:00:06.330Z,5.00
2022-08-19T13:02:38.535Z,5.00
2022-08-19T13:05:09.527Z,5.10
2022-08-19T13:07:39.659Z,5.10
2022-08-19T13:10:10.178Z,4.70
2022-08-19T13:12:37.907Z,4.70
2022-08-19T13:15:10.753Z,4.80
2022-08-19T13:17:40.788Z,4.80
2022-08-19T13:20:10.415Z,4.80
2022-08-19T13:22:38.657Z,5.10
2022-08-19T13:25:07.837Z,4.70
2022-08-19T13:27:39.214Z,4.80
2022-08-19T13:30:26.122Z,4.50
2022-08-19T13:33:09.987Z,4.80
2022-08-19T13:35:41.773Z,4.60
2022-08-19T13:38:12.125Z,4.70
2022-08-19T13:40:41.340Z,4.20
2022-08-19T13:43:17.847Z,4.60
2022-08-19T13:45:56.638Z,4.50
2022-08-19T13:48:27.145Z,4.20
2022-08-19T13:50:55.566Z,4.30
2022-08-19T13:53:24.050Z,4.20
2022-08-19T13:55:52.027Z,4.40
2022-08-19T13:58:19.620Z,4.50
2022-08-19T14:00:47.942Z,4.50
2022-08-19T14:03:16.045Z,4.40
2022-08-19T14:05:43.657Z,4.40
2022-08-19T14:08:14.956Z,4.20
2022-08-19T14:10:45.397Z,9.10
2022-08-19T14:13:20.756Z,5.10
2022-08-19T14:15:48.953Z,4.60
2022-08-19T14:18:19.006Z,4.30
2022-08-19T14:20:46.726Z,4.30
2022-08-19T14:23:14.508Z,4.40
2022-08-19T14:25:42.339Z,4.40
2022-08-19T14:28:10.448Z,4.10
2022-08-19T14:30:39.048Z,4.50
2022-08-19T14:33:08.174Z,4.40
2022-08-19T14:35:36.639Z,4.90
2022-08-19T14:38:05.837Z,4.80
2022-08-19T14:40:35.545Z,4.60
2022-08-19T14:43:05.393Z,4.30
2022-08-19T14:45:36.768Z,5.10
2022-08-19T14:50:34.799Z,3.90
2022-08-19T14:53:09.345Z,4.70
2022-08-19T14:55:45.304Z,4.40
2022-08-19T14:58:29.230Z,4.20
2022-08-19T15:01:00.498Z,4.40
2022-08-19T15:03:29.843Z,4.80
2022-08-19T15:05:58.304Z,4.20
2022-08-19T15:08:27.580Z,4.00
2022-08-19T15:10:56.364Z,4.30
2022-08-19T15:13:26.066Z,4.30
2022-08-19T15:15:54.023Z,4.80
2022-08-19T15:18:22.634Z,4.30
2022-08-19T15:20:50.586Z,4.40
2022-08-19T15:23:20.562Z,4.40
2022-08-19T15:25:48.978Z,4.70
2022-08-19T15:28:17.164Z,4.60
2022-08-19T15:30:44.798Z,4.50
2022-08-19T15:33:16.339Z,4.70
2022-08-19T15:35:44.955Z,5.00
2022-08-19T15:38:16.021Z,4.60
2022-08-19T15:40:44.389Z,4.90
2022-08-19T15:43:12.111Z,5.00
2022-08-19T15:45:40.132Z,5.00
2022-08-19T15:48:08.097Z,4.40
2022-08-19T15:50:35.787Z,4.60
2022-08-19T15:53:07.262Z,4.50
2022-08-19T15:55:41.940Z,5.00
2022-08-19T15:58:28.920Z,4.80
2022-08-19T16:01:15.120Z,5.00
2022-08-19T16:03:59.730Z,4.70
2022-08-19T16:06:29.610Z,5.30
2022-08-19T16:09:04.481Z,5.00
2022-08-19T16:11:39.289Z,5.20
2022-08-19T16:14:09.364Z,5.00
2022-08-19T16:16:38.352Z,4.70
2022-08-19T16:19:10.196Z,5.00
2022-08-19T16:21:41.990Z,5.00
2022-08-19T16:24:13.153Z,4.80
2022-08-19T16:26:42.485Z,5.70
2022-08-19T16:29:12.956Z,4.90
2022-08-19T16:31:43.692Z,5.10
2022-08-19T16:34:13.171Z,5.40
2022-08-19T16:36:42.109Z,5.20
2022-08-19T16:39:15.554Z,5.20
2022-08-19T16:41:45.637Z,5.10
2022-08-19T16:44:15.403Z,5.50
2022-08-19T16:46:43.056Z,5.20
2022-08-19T16:49:11.288Z,5.70
2022-08-19T16:51:39.624Z,5.10
2022-08-19T16:54:07.683Z,5.70
2022-08-19T16:56:35.781Z,5.50
2022-08-19T16:59:03.705Z,6.20
2022-08-19T17:01:31.533Z,5.50
2022-08-19T17:03:59.299Z,6.30
2022-08-19T17:06:30.784Z,5.90
2022-08-19T17:09:01.399Z,5.90
2022-08-19T17:11:32.767Z,7.30
2022-08-19T17:14:02.453Z,6.60
2022-08-19T17:16:32.579Z,6.90
2022-08-19T17:19:02.454Z,6.80
2022-08-19T17:21:37.570Z,6.70
2022-08-19T17:24:08.481Z,6.20
2022-08-19T17:26:39.132Z,6.60
2022-08-19T17:29:06.807Z,6.40
2022-08-19T17:31:34.749Z,7.50
2022-08-19T17:34:03.643Z,7.50
2022-08-19T17:36:33.860Z,6.40
2022-08-19T17:39:03.917Z,6.20
2022-08-19T17:41:34.138Z,6.30
2022-08-19T17:44:03.679Z,6.20
2022-08-19T17:46:32.145Z,6.00
2022-08-19T17:49:00.097Z,6.20
2022-08-19T17:51:33.653Z,6.50
2022-08-19T17:54:02.115Z,6.30
2022-08-19T17:56:30.017Z,6.90
2022-08-19T17:59:00.635Z,7.00
2022-08-19T18:01:35.497Z,7.30
2022-08-19T18:04:19.349Z,7.10
2022-08-19T18:06:53.331Z,6.40
2022-08-19T18:09:27.129Z,20.40
2022-08-19T18:11:57.443Z,14.70
2022-08-19T18:14:34.103Z,9.20
2022-08-19T18:17:09.023Z,10.60
2022-08-19T18:19:43.756Z,18.30
2022-08-19T18:22:27.617Z,9.80
2022-08-19T18:27:26.983Z,14.30
2022-08-19T18:29:59.458Z,17.80
2022-08-19T18:35:11.982Z,11.50
2022-08-19T18:37:44.639Z,11.40
2022-08-19T18:40:33.427Z,11.20
2022-08-19T18:43:17.037Z,9.90
2022-08-19T18:46:01.192Z,10.80
2022-08-19T18:48:45.038Z,10.00
2022-08-19T18:51:14.448Z,17.00
2022-08-19T18:53:44.839Z,21.30
2022-08-19T18:56:15.904Z,17.90
2022-08-19T18:58:44.200Z,9.40
2022-08-19T19:01:17.138Z,12.40
2022-08-19T19:06:19.147Z,7.30
2022-08-19T19:08:48.212Z,7.70
2022-08-19T19:11:33.794Z,6.60
2022-08-19T19:14:03.431Z,5.80
2022-08-19T19:16:32.243Z,6.30
2022-08-19T19:18:59.910Z,6.10
2022-08-19T19:21:31.858Z,6.80
2022-08-19T19:24:02.406Z,6.00
2022-08-19T19:26:30.478Z,5.60
2022-08-19T19:28:59.649Z,6.40
2022-08-19T19:31:27.309Z,6.40
2022-08-19T19:33:56.312Z,5.70
2022-08-19T19:36:24.002Z,5.80
2022-08-19T19:38:52.682Z,5.60
2022-08-19T19:41:25.781Z,5.50
2022-08-19T19:46:43.518Z,5.10
2022-08-19T19:49:12.121Z,5.10
2022-08-19T19:51:41.155Z,5.40
2022-08-19T19:54:13.889Z,6.10
2022-08-19T19:56:48.091Z,4.80
2022-08-19T19:59:17.101Z,5.00
2022-08-19T20:01:46.970Z,5.20
2022-08-19T20:04:16.528Z,5.10
2022-08-19T20:06:46.335Z,5.00
2022-08-19T20:09:19.633Z,5.00
2022-08-19T20:11:53.792Z,5.00
2022-08-19T20:14:32.002Z,5.60
2022-08-19T20:17:00.324Z,5.30
2022-08-19T20:19:33.932Z,4.90
2022-08-19T20:24:33.470Z,4.80
2022-08-19T20:27:02.527Z,5.10
2022-08-19T20:29:39.314Z,4.80
2022-08-19T20:32:10.600Z,4.60
2022-08-19T20:34:40.463Z,5.20
2022-08-19T20:37:09.482Z,5.00
2022-08-19T20:39:38.041Z,4.90
2022-08-19T20:42:06.008Z,5.00
2022-08-19T20:44:33.644Z,5.20
2022-08-19T20:47:04.052Z,4.90
2022-08-19T20:49:32.359Z,4.90
2022-08-19T20:52:00.293Z,5.00
2022-08-19T20:54:28.476Z,5.30
2022-08-19T20:56:56.792Z,5.10
2022-08-19T20:59:26.135Z,4.90
2022-08-19T21:01:53.896Z,4.90
2022-08-19T21:04:22.321Z,5.00
2022-08-19T21:06:50.963Z,4.80
2022-08-19T21:09:18.623Z,4.90
2022-08-19T21:11:46.262Z,5.10
2022-08-19T21:14:13.915Z,5.10
2022-08-19T21:16:41.554Z,4.90
2022-08-19T21:19:09.157Z,4.70
2022-08-19T21:21:36.772Z,5.10
2022-08-19T21:24:04.563Z,5.00
2022-08-19T21:26:32.201Z,5.10
2022-08-19T21:28:59.894Z,5.00
2022-08-19T21:31:27.549Z,4.70
2022-08-19T21:33:55.672Z,5.00
2022-08-19T21:36:23.306Z,5.10
2022-08-19T21:38:51.104Z,5.10
2022-08-19T21:41:18.774Z,5.00
2022-08-19T21:43:46.393Z,5.00
2022-08-19T21:46:14.320Z,5.00
2022-08-19T21:48:41.920Z,5.10
2022-08-19T21:51:09.720Z,4.80
2022-08-19T21:53:37.376Z,4.90
2022-08-19T21:56:06.605Z,5.40
2022-08-19T21:58:36.411Z,5.00
2022-08-19T22:01:07.575Z,5.50
2022-08-19T22:03:37.694Z,5.60
2022-08-19T22:06:06.365Z,5.80
2022-08-19T22:08:34.008Z,5.70
2022-08-19T22:11:03.253Z,5.70
2022-08-19T22:13:39.770Z,5.50
2022-08-19T22:16:09.568Z,5.70
2022-08-19T22:18:37.505Z,5.20
2022-08-19T22:21:11.415Z,5.60
2022-08-19T22:23:42.150Z,5.50
2022-08-19T22:26:11.408Z,5.80
2022-08-19T22:28:39.694Z,5.60
2022-08-19T22:31:10.406Z,6.20
2022-08-19T22:33:38.301Z,6.00
2022-08-19T22:36:07.597Z,6.10
2022-08-19T22:38:37.297Z,6.10
2022-08-19T22:41:07.793Z,5.60
2022-08-19T22:43:37.344Z,6.20
2022-08-19T22:46:06.350Z,6.20
2022-08-19T22:48:46.983Z,6.70
2022-08-19T22:51:31.450Z,5.70
2022-08-19T22:53:59.062Z,6.20
2022-08-19T22:56:26.805Z,6.60
2022-08-19T22:58:55.154Z,6.30
2022-08-19T23:01:30.405Z,6.50
2022-08-19T23:03:59.731Z,6.20
2022-08-19T23:06:33.752Z,6.50
2022-08-19T23:09:06.551Z,6.50
2022-08-19T23:11:38.160Z,6.60
2022-08-19T23:14:12.390Z,6.30
2022-08-19T23:16:41.519Z,7.40
2022-08-19T23:19:10.156Z,7.10
2022-08-19T23:21:39.861Z,6.80
2022-08-19T23:24:08.751Z,6.80
2022-08-19T23:26:36.814Z,7.80
2022-08-19T23:29:21.795Z,7.30
2022-08-19T23:31:50.082Z,7.20
2022-08-19T23:34:17.941Z,7.40
2022-08-19T23:36:46.224Z,7.10
2022-08-19T23:39:13.814Z,6.70
2022-08-19T23:41:41.432Z,8.00
2022-08-19T23:44:14.441Z,7.90
2022-08-19T23:46:55.378Z,7.60
2022-08-19T23:49:24.921Z,7.50
2022-08-19T23:51:54.220Z,7.80
2022-08-19T23:54:34.319Z,8.20
2022-08-19T23:57:13.852Z,7.90
2022-08-19T23:59:45.203Z,7.10
